createdAt,value
2019-05-29T00:02:22.546Z,6.85
2019-05-29T00:04:50.823Z,7.22
2019-05-29T00:07:19.564Z,6.45
2019-05-29T00:09:47.709Z,6.90
2019-05-29T00:12:19.659Z,6.75
2019-05-29T00:14:45.996Z,6.15
2019-05-29T00:17:15.093Z,6.45
2019-05-29T00:19:43.258Z,6.62
2019-05-29T00:22:14.494Z,6.08
2019-05-29T00:24:42.090Z,6.33
2019-05-29T00:27:13.793Z,6.80
2019-05-29T00:29:39.369Z,7.20
2019-05-29T00:32:08.860Z,7.03
2019-05-29T00:34:36.716Z,6.15
2019-05-29T00:37:06.400Z,5.97
2019-05-29T00:39:34.050Z,5.50
2019-05-29T00:42:01.871Z,6.50
2019-05-29T00:44:34.323Z,6.05
2019-05-29T00:46:59.745Z,6.28
2019-05-29T00:49:27.334Z,6.17
2019-05-29T00:51:55.038Z,6.22
2019-05-29T00:54:24.915Z,6.55
2019-05-29T00:56:52.789Z,5.80
2019-05-29T00:59:20.353Z,6.10
2019-05-29T01:01:50.870Z,6.50
2019-05-29T01:04:20.040Z,6.40
2019-05-29T01:06:47.975Z,5.85
2019-05-29T01:09:16.469Z,6.42
2019-05-29T01:11:44.938Z,6.90
2019-05-29T01:14:13.115Z,6.83
2019-05-29T01:16:43.256Z,8.78
2019-05-29T01:19:25.995Z,6.83
2019-05-29T01:21:57.776Z,6.47
2019-05-29T01:24:26.748Z,7.03
2019-05-29T01:26:54.649Z,6.55
2019-05-29T01:29:25.302Z,6.90
2019-05-29T01:31:53.243Z,7.00
2019-05-29T01:34:22.018Z,6.87
2019-05-29T01:36:49.776Z,7.00
2019-05-29T01:39:17.696Z,7.80
2019-05-29T01:41:45.498Z,7.10
2019-05-29T01:44:13.409Z,7.83
2019-05-29T01:46:41.766Z,6.60
2019-05-29T01:49:11.123Z,7.37
2019-05-29T01:51:39.535Z,6.80
2019-05-29T01:54:08.186Z,6.75
2019-05-29T01:56:36.435Z,7.95
2019-05-29T01:59:04.533Z,6.97
2019-05-29T02:01:33.414Z,8.35
2019-05-29T02:04:02.107Z,7.35
2019-05-29T02:06:30.348Z,8.33
2019-05-29T02:08:58.137Z,8.15
2019-05-29T02:11:26.425Z,8.10
2019-05-29T02:13:55.596Z,7.70
2019-05-29T02:16:24.819Z,7.37
2019-05-29T02:18:53.335Z,8.30
2019-05-29T02:21:22.512Z,7.95
2019-05-29T02:23:50.448Z,8.33
2019-05-29T02:26:18.219Z,7.90
2019-05-29T02:28:49.519Z,7.95
2019-05-29T02:31:19.427Z,7.95
2019-05-29T02:33:47.096Z,7.80
2019-05-29T02:36:14.932Z,8.83
2019-05-29T02:38:42.850Z,8.65
2019-05-29T02:41:10.521Z,8.63
2019-05-29T02:43:42.552Z,9.30
2019-05-29T02:46:14.460Z,9.90
2019-05-29T02:48:44.025Z,9.95
2019-05-29T02:51:17.186Z,10.23
2019-05-29T02:53:48.046Z,9.83
2019-05-29T02:56:20.679Z,10.55
2019-05-29T02:58:48.774Z,10.68
2019-05-29T03:01:17.784Z,11.68
2019-05-29T03:03:46.515Z,12.28
2019-05-29T03:06:14.185Z,12.23
2019-05-29T03:08:41.853Z,12.78
2019-05-29T03:11:09.541Z,12.40
2019-05-29T03:13:37.917Z,12.85
2019-05-29T03:16:11.653Z,11.50
2019-05-29T03:18:38.605Z,11.53
2019-05-29T03:21:07.315Z,15.88
2019-05-29T03:23:36.257Z,12.37
2019-05-29T03:26:06.508Z,12.45
2019-05-29T03:28:36.210Z,11.70
2019-05-29T03:31:04.147Z,10.63
2019-05-29T03:33:43.066Z,12.60
2019-05-29T03:36:02.314Z,10.88
2019-05-29T03:38:32.445Z,10.00
2019-05-29T03:41:00.237Z,10.45
2019-05-29T03:43:28.801Z,13.68
2019-05-29T03:45:58.024Z,14.98
2019-05-29T03:48:26.061Z,13.30
2019-05-29T03:50:56.997Z,11.50
2019-05-29T03:53:24.649Z,11.90
2019-05-29T03:55:53.370Z,12.45
2019-05-29T03:58:21.701Z,17.80
2019-05-29T04:00:49.921Z,16.52
2019-05-29T04:03:18.311Z,18.20
2019-05-29T04:05:46.008Z,15.25
2019-05-29T04:08:13.604Z,13.22
2019-05-29T04:10:43.158Z,11.88
2019-05-29T04:13:13.595Z,11.12
2019-05-29T04:15:43.683Z,12.33
2019-05-29T04:18:11.401Z,11.90
2019-05-29T04:20:39.167Z,12.25
2019-05-29T04:23:07.346Z,13.08
2019-05-29T04:25:42.007Z,13.00
2019-05-29T04:28:08.377Z,13.60
2019-05-29T04:30:39.010Z,13.20
2019-05-29T04:33:08.389Z,13.00
2019-05-29T04:35:37.019Z,12.70
2019-05-29T04:38:05.604Z,14.90
2019-05-29T04:40:35.030Z,12.63
2019-05-29T04:43:03.529Z,13.18
2019-05-29T04:45:33.239Z,13.22
2019-05-29T04:48:02.300Z,13.28
2019-05-29T04:50:31.370Z,13.45
2019-05-29T04:53:00.149Z,12.28
2019-05-29T04:55:28.622Z,13.50
2019-05-29T04:57:58.953Z,13.50
2019-05-29T05:00:26.553Z,12.85
2019-05-29T05:02:55.544Z,13.72
2019-05-29T05:05:23.719Z,13.75
2019-05-29T05:07:52.684Z,13.05
2019-05-29T05:10:37.830Z,14.40
2019-05-29T05:13:07.366Z,14.70
2019-05-29T05:15:35.984Z,15.20
2019-05-29T05:18:05.491Z,13.48
2019-05-29T05:20:36.481Z,13.13
2019-05-29T05:23:05.261Z,14.47
2019-05-29T05:25:34.145Z,13.32
2019-05-29T05:28:03.692Z,13.60
2019-05-29T05:30:32.338Z,14.15
2019-05-29T05:33:00.790Z,13.83
2019-05-29T05:35:28.656Z,13.78
2019-05-29T05:37:56.495Z,13.55
2019-05-29T05:40:24.525Z,13.58
2019-05-29T05:42:52.287Z,14.80
2019-05-29T05:45:20.136Z,13.03
2019-05-29T05:47:56.957Z,13.50
2019-05-29T05:50:19.995Z,14.47
2019-05-29T05:52:47.846Z,12.63
2019-05-29T05:55:15.756Z,13.35
2019-05-29T05:57:43.593Z,11.35
2019-05-29T06:00:14.312Z,13.28
2019-05-29T06:02:42.644Z,12.75
2019-05-29T06:05:22.508Z,11.05
2019-05-29T06:07:51.491Z,11.68
2019-05-29T06:10:19.453Z,10.90
2019-05-29T06:12:47.254Z,11.50
2019-05-29T06:15:18.909Z,9.05
2019-05-29T06:18:04.718Z,9.08
2019-05-29T06:20:16.155Z,9.68
2019-05-29T06:22:43.922Z,8.60
2019-05-29T06:25:12.131Z,8.58
2019-05-29T06:27:41.433Z,10.30
2019-05-29T06:30:09.511Z,8.30
2019-05-29T06:32:39.478Z,7.77
2019-05-29T06:35:08.725Z,9.77
2019-05-29T06:37:37.563Z,8.67
2019-05-29T06:40:10.996Z,7.50
2019-05-29T06:42:39.745Z,8.00
2019-05-29T06:45:08.421Z,6.63
2019-05-29T06:47:38.494Z,6.70
2019-05-29T06:50:07.669Z,7.13
2019-05-29T06:52:37.391Z,6.10
2019-05-29T06:55:05.281Z,7.20
2019-05-29T06:57:35.876Z,7.60
2019-05-29T07:00:04.912Z,6.90
2019-05-29T07:02:36.469Z,7.50
2019-05-29T07:05:05.760Z,9.60
2019-05-29T07:07:40.322Z,7.87
2019-05-29T07:10:09.076Z,7.83
2019-05-29T07:12:38.227Z,8.10
2019-05-29T07:15:07.084Z,8.27
2019-05-29T07:17:34.721Z,9.13
2019-05-29T07:20:05.126Z,8.80
2019-05-29T07:22:33.823Z,9.30
2019-05-29T07:25:01.853Z,10.10
2019-05-29T07:27:30.758Z,9.73
2019-05-29T07:30:04.931Z,8.43
2019-05-29T07:32:38.718Z,8.50
2019-05-29T07:35:10.828Z,8.70
2019-05-29T07:37:39.707Z,8.83
2019-05-29T07:40:09.031Z,9.53
2019-05-29T07:42:37.057Z,9.70
2019-05-29T07:45:05.188Z,9.30
2019-05-29T07:47:32.776Z,10.00
2019-05-29T07:50:00.360Z,8.13
2019-05-29T07:52:28.035Z,8.93
2019-05-29T07:54:56.162Z,9.00
2019-05-29T07:57:23.744Z,9.20
2019-05-29T07:59:52.899Z,9.23
2019-05-29T08:02:21.646Z,8.60
2019-05-29T08:04:50.559Z,10.00
2019-05-29T08:07:18.261Z,9.50
2019-05-29T08:09:46.169Z,10.50
2019-05-29T08:12:14.250Z,9.53
2019-05-29T08:14:43.474Z,7.93
2019-05-29T08:17:13.516Z,8.47
2019-05-29T08:20:01.806Z,8.90
2019-05-29T08:22:33.036Z,8.50
2019-05-29T08:24:48.114Z,9.10
2019-05-29T08:27:16.269Z,9.10
2019-05-29T08:29:44.862Z,8.23
2019-05-29T08:32:12.826Z,7.03
2019-05-29T08:34:40.885Z,8.13
2019-05-29T08:37:09.781Z,8.40
2019-05-29T08:39:37.363Z,8.17
2019-05-29T08:42:22.075Z,8.20
2019-05-29T08:44:34.795Z,8.97
2019-05-29T08:47:10.123Z,6.87
2019-05-29T08:49:32.072Z,7.93
2019-05-29T08:52:11.896Z,6.50
2019-05-29T08:54:32.674Z,6.30
2019-05-29T08:57:00.636Z,5.10
2019-05-29T08:59:29.228Z,6.60
2019-05-29T09:01:57.229Z,5.67
2019-05-29T09:04:26.179Z,6.33
2019-05-29T09:06:56.042Z,6.17
2019-05-29T09:09:23.972Z,6.00
2019-05-29T09:11:51.913Z,6.17
2019-05-29T09:14:19.637Z,5.97
2019-05-29T09:16:47.260Z,5.97
2019-05-29T09:19:16.246Z,5.50
2019-05-29T09:21:44.500Z,6.10
2019-05-29T09:24:12.879Z,6.10
2019-05-29T09:26:41.646Z,5.43
2019-05-29T09:29:09.371Z,6.20
2019-05-29T09:31:40.371Z,5.80
2019-05-29T09:34:07.981Z,5.40
2019-05-29T09:36:35.853Z,5.63
2019-05-29T09:39:06.474Z,4.87
2019-05-29T09:41:36.427Z,4.80
2019-05-29T09:44:04.181Z,5.27
2019-05-29T09:46:31.885Z,5.20
2019-05-29T09:49:03.703Z,5.47
2019-05-29T09:51:32.368Z,4.60
2019-05-29T09:54:01.490Z,4.70
2019-05-29T09:56:31.472Z,6.50
2019-05-29T09:59:01.786Z,6.60
2019-05-29T10:01:29.795Z,7.10
2019-05-29T10:04:03.433Z,6.33
2019-05-29T10:06:30.115Z,7.07
2019-05-29T10:08:59.689Z,7.10
2019-05-29T10:11:28.580Z,7.10
2019-05-29T10:13:56.967Z,6.03
2019-05-29T10:16:25.915Z,7.07
2019-05-29T10:18:55.653Z,7.73
2019-05-29T10:21:39.458Z,7.23
2019-05-29T10:23:56.602Z,7.37
2019-05-29T10:26:25.117Z,8.93
2019-05-29T10:29:06.773Z,7.63
2019-05-29T10:31:27.477Z,7.03
2019-05-29T10:33:59.029Z,7.90
2019-05-29T10:36:26.738Z,7.20
2019-05-29T10:38:54.322Z,6.60
2019-05-29T10:41:21.899Z,7.20
2019-05-29T10:43:49.501Z,5.90
2019-05-29T10:46:18.990Z,6.93
2019-05-29T10:48:50.316Z,6.90
2019-05-29T10:51:21.828Z,7.40
2019-05-29T10:53:50.474Z,6.33
2019-05-29T10:56:21.365Z,7.03
2019-05-29T10:58:54.358Z,7.60
2019-05-29T11:01:19.374Z,7.07
2019-05-29T11:03:47.290Z,6.53
2019-05-29T11:06:15.257Z,7.27
2019-05-29T11:08:44.186Z,6.50
2019-05-29T11:11:12.146Z,7.77
2019-05-29T11:13:39.931Z,7.43
2019-05-29T11:16:07.807Z,8.10
2019-05-29T11:18:36.577Z,6.87
2019-05-29T11:21:07.445Z,8.47
2019-05-29T11:23:35.060Z,9.47
2019-05-29T11:26:03.250Z,8.40
2019-05-29T11:28:31.245Z,9.43
2019-05-29T11:31:06.230Z,8.00
2019-05-29T11:33:31.036Z,8.57
2019-05-29T11:36:09.936Z,8.33
2019-05-29T11:38:28.414Z,7.53
2019-05-29T11:41:22.814Z,7.63
2019-05-29T11:43:25.774Z,7.20
2019-05-29T11:45:54.816Z,8.80
2019-05-29T11:48:22.842Z,9.50
2019-05-29T11:50:50.667Z,7.70
2019-05-29T11:53:18.551Z,7.57
2019-05-29T11:55:52.504Z,7.23
2019-05-29T11:58:31.194Z,7.50
2019-05-29T12:00:51.547Z,8.27
2019-05-29T12:03:21.510Z,7.53
2019-05-29T12:05:49.618Z,8.63
2019-05-29T12:08:17.180Z,7.80
2019-05-29T12:10:45.438Z,8.10
2019-05-29T12:13:13.003Z,8.70
2019-05-29T12:15:40.870Z,8.07
2019-05-29T12:18:23.084Z,8.43
2019-05-29T12:20:39.157Z,7.17
2019-05-29T12:23:22.850Z,8.10
2019-05-29T12:25:36.774Z,6.90
2019-05-29T12:28:08.361Z,6.97
2019-05-29T12:30:37.321Z,8.13
2019-05-29T12:33:05.877Z,7.20
2019-05-29T12:35:34.567Z,7.03
2019-05-29T12:38:05.512Z,6.47
2019-05-29T12:40:33.402Z,6.80
2019-05-29T12:43:01.919Z,7.30
2019-05-29T12:45:29.896Z,6.60
2019-05-29T12:48:06.451Z,6.57
2019-05-29T12:50:34.407Z,7.37
2019-05-29T12:53:01.863Z,8.23
2019-05-29T12:55:30.058Z,6.63
2019-05-29T12:57:58.290Z,6.40
2019-05-29T13:00:27.358Z,6.07
2019-05-29T13:02:58.568Z,5.23
2019-05-29T13:05:26.900Z,4.07
2019-05-29T13:07:56.785Z,4.90
2019-05-29T13:10:30.669Z,3.87
2019-05-29T13:13:01.338Z,4.20
2019-05-29T13:15:27.269Z,5.30
2019-05-29T13:18:00.906Z,3.77
2019-05-29T13:20:25.491Z,3.50
2019-05-29T13:22:53.363Z,3.73
2019-05-29T13:25:21.299Z,3.60
2019-05-29T13:27:50.284Z,3.90
2019-05-29T13:30:21.815Z,4.93
2019-05-29T13:32:50.082Z,3.90
2019-05-29T13:35:21.990Z,4.73
2019-05-29T13:37:49.447Z,3.50
2019-05-29T13:40:18.216Z,4.60
2019-05-29T13:42:45.784Z,4.33
2019-05-29T13:45:18.165Z,5.60
2019-05-29T13:47:43.865Z,5.60
2019-05-29T13:50:13.428Z,5.63
2019-05-29T13:52:42.083Z,4.93
2019-05-29T13:55:11.568Z,4.90
2019-05-29T13:57:40.198Z,4.40
2019-05-29T14:00:31.069Z,4.60
2019-05-29T14:02:41.771Z,4.90
2019-05-29T14:05:10.370Z,4.80
2019-05-29T14:07:43.953Z,5.33
2019-05-29T14:10:12.430Z,5.80
2019-05-29T14:12:40.435Z,5.90
2019-05-29T14:15:09.294Z,6.20
2019-05-29T14:17:37.617Z,6.47
2019-05-29T14:20:07.146Z,8.10
2019-05-29T14:22:34.921Z,8.67
2019-05-29T14:25:07.508Z,9.43
2019-05-29T14:27:36.741Z,8.97
2019-05-29T14:30:06.251Z,9.13
2019-05-29T14:32:35.349Z,8.17
2019-05-29T14:35:19.320Z,7.80
2019-05-29T14:37:47.768Z,8.63
2019-05-29T14:40:17.827Z,9.00
2019-05-29T14:42:45.434Z,9.10
2019-05-29T14:45:16.202Z,9.50
2019-05-29T14:47:55.892Z,8.30
2019-05-29T14:50:24.449Z,9.50
2019-05-29T14:52:52.323Z,8.30
2019-05-29T14:55:20.246Z,8.17
2019-05-29T14:57:47.880Z,9.70
2019-05-29T15:00:24.976Z,10.10
2019-05-29T15:02:47.125Z,10.47
2019-05-29T15:05:15.691Z,8.07
2019-05-29T15:07:43.249Z,7.87
2019-05-29T15:10:24.997Z,8.17
2019-05-29T15:12:43.149Z,4.80
2019-05-29T15:15:14.276Z,3.53
2019-05-29T15:17:44.273Z,3.50
2019-05-29T15:20:14.498Z,3.67
2019-05-29T15:22:42.694Z,3.53
2019-05-29T15:25:19.478Z,2.60
2019-05-29T15:27:41.629Z,3.20
2019-05-29T15:30:11.324Z,2.50
2019-05-29T15:32:39.833Z,3.07
2019-05-29T15:35:12.764Z,3.40
2019-05-29T15:37:37.716Z,3.00
2019-05-29T15:40:08.926Z,3.07
2019-05-29T15:42:40.113Z,3.03
2019-05-29T15:45:11.944Z,3.17
2019-05-29T15:47:39.885Z,3.33
2019-05-29T15:50:09.217Z,3.30
2019-05-29T15:52:37.086Z,3.00
2019-05-29T15:55:23.562Z,3.10
2019-05-29T15:57:34.490Z,3.80
2019-05-29T16:00:02.627Z,3.13
2019-05-29T16:02:32.314Z,2.90
2019-05-29T16:05:02.538Z,3.20
2019-05-29T16:07:30.213Z,3.50
2019-05-29T16:10:00.546Z,3.10
2019-05-29T16:12:31.009Z,3.37
2019-05-29T16:15:00.204Z,3.07
2019-05-29T16:17:28.134Z,3.10
2019-05-29T16:19:55.931Z,3.00
2019-05-29T16:22:29.635Z,3.40
2019-05-29T16:24:59.468Z,3.53
2019-05-29T16:27:30.834Z,3.30
2019-05-29T16:29:57.165Z,2.90
2019-05-29T16:32:25.159Z,3.00
2019-05-29T16:34:53.125Z,2.70
2019-05-29T16:37:21.985Z,3.10
2019-05-29T16:39:51.198Z,2.87
2019-05-29T16:42:20.496Z,3.03
2019-05-29T16:44:49.927Z,2.87
2019-05-29T16:47:20.878Z,3.23
2019-05-29T16:49:53.275Z,3.10
2019-05-29T16:52:21.268Z,3.57
2019-05-29T16:54:49.154Z,3.10
2019-05-29T16:57:17.260Z,2.60
2019-05-29T16:59:45.966Z,3.10
2019-05-29T17:02:15.494Z,3.47
2019-05-29T17:04:43.776Z,3.40
2019-05-29T17:07:11.725Z,3.20
2019-05-29T17:09:45.485Z,3.20
2019-05-29T17:12:14.254Z,2.70
2019-05-29T17:14:57.339Z,2.90
2019-05-29T17:17:34.463Z,3.57
2019-05-29T17:20:05.977Z,3.30
2019-05-29T17:22:33.644Z,3.47
2019-05-29T17:25:01.231Z,3.60
2019-05-29T17:27:29.857Z,3.30
2019-05-29T17:29:57.667Z,3.13
2019-05-29T17:32:25.585Z,3.70
2019-05-29T17:34:53.374Z,3.40
2019-05-29T17:37:21.245Z,3.07
2019-05-29T17:39:50.461Z,3.30
2019-05-29T17:42:24.690Z,3.10
2019-05-29T17:44:53.650Z,3.40
2019-05-29T17:47:21.691Z,3.00
2019-05-29T17:49:49.590Z,3.80
2019-05-29T17:52:17.736Z,3.77
2019-05-29T17:54:46.909Z,3.90
2019-05-29T17:57:16.560Z,3.70
2019-05-29T17:59:44.840Z,3.40
2019-05-29T18:02:12.456Z,3.53
2019-05-29T18:04:40.094Z,3.97
2019-05-29T18:07:07.996Z,3.87
2019-05-29T18:09:38.605Z,3.77
2019-05-29T18:12:06.285Z,4.13
2019-05-29T18:14:33.953Z,4.20
2019-05-29T18:17:04.196Z,4.20
2019-05-29T18:19:32.133Z,3.60
2019-05-29T18:21:59.828Z,4.10
2019-05-29T18:24:28.042Z,3.90
2019-05-29T18:26:59.053Z,4.70
2019-05-29T18:29:26.320Z,4.33
2019-05-29T18:31:54.405Z,3.80
2019-05-29T18:34:23.036Z,4.30
2019-05-29T18:36:50.696Z,4.30
2019-05-29T18:39:22.099Z,4.70
2019-05-29T18:41:50.352Z,4.10
2019-05-29T18:44:20.746Z,3.77
2019-05-29T18:46:50.375Z,4.45
2019-05-29T18:49:20.529Z,4.23
2019-05-29T18:51:48.155Z,4.10
2019-05-29T18:54:15.755Z,4.50
2019-05-29T18:56:43.410Z,4.67
2019-05-29T18:59:11.189Z,85.12
2019-05-29T19:01:43.063Z,34.90
2019-05-29T19:04:23.421Z,5.60
2019-05-29T19:06:52.148Z,4.80
2019-05-29T19:09:23.536Z,5.20
2019-05-29T19:11:54.926Z,5.47
2019-05-29T19:14:24.064Z,4.90
2019-05-29T19:16:53.040Z,4.55
2019-05-29T19:19:21.991Z,4.50
2019-05-29T19:21:49.869Z,4.10
2019-05-29T19:24:17.708Z,4.20
2019-05-29T19:26:45.563Z,3.65
2019-05-29T19:29:20.815Z,4.25
2019-05-29T19:31:49.847Z,4.37
2019-05-29T19:34:19.787Z,4.15
2019-05-29T19:36:47.396Z,4.15
2019-05-29T19:39:15.163Z,4.00
2019-05-29T19:41:44.115Z,4.45
2019-05-29T19:44:12.125Z,4.90
2019-05-29T19:46:53.315Z,5.70
2019-05-29T19:49:10.620Z,5.40
2019-05-29T19:51:38.279Z,4.58
2019-05-29T19:54:06.587Z,4.60
2019-05-29T19:56:34.397Z,4.75
2019-05-29T19:59:02.149Z,4.80
2019-05-29T20:01:35.385Z,3.90
2019-05-29T20:04:00.747Z,3.83
2019-05-29T20:06:28.836Z,3.70
2019-05-29T20:08:56.735Z,3.85
2019-05-29T20:11:24.804Z,3.40
2019-05-29T20:13:52.767Z,3.65
2019-05-29T20:16:20.598Z,3.72
2019-05-29T20:18:52.739Z,3.08
2019-05-29T20:21:22.875Z,3.27
2019-05-29T20:23:52.410Z,3.50
2019-05-29T20:26:20.564Z,2.80
2019-05-29T20:28:48.155Z,3.10
2019-05-29T20:31:15.928Z,2.95
2019-05-29T20:33:45.736Z,2.98
2019-05-29T20:36:21.205Z,3.00
2019-05-29T20:38:48.863Z,3.10
2019-05-29T20:41:22.499Z,2.65
2019-05-29T20:44:00.805Z,3.87
2019-05-29T20:46:34.930Z,3.55
2019-05-29T20:49:07.631Z,2.83
2019-05-29T20:51:36.157Z,2.90
2019-05-29T20:54:12.984Z,3.00
2019-05-29T20:56:41.950Z,3.42
2019-05-29T20:59:09.923Z,2.75
2019-05-29T21:01:40.960Z,3.00
2019-05-29T21:04:07.683Z,3.02
2019-05-29T21:06:36.634Z,3.35
2019-05-29T21:09:05.712Z,2.80
2019-05-29T21:11:33.388Z,3.08
2019-05-29T21:14:01.120Z,2.90
2019-05-29T21:16:29.919Z,2.83
2019-05-29T21:19:07.453Z,2.35
2019-05-29T21:21:36.289Z,3.08
2019-05-29T21:24:05.679Z,2.70
2019-05-29T21:26:34.994Z,2.83
2019-05-29T21:29:02.773Z,2.70
2019-05-29T21:31:30.729Z,2.85
2019-05-29T21:33:58.459Z,2.67
2019-05-29T21:36:26.427Z,2.87
2019-05-29T21:38:54.686Z,3.35
2019-05-29T21:41:26.281Z,3.12
2019-05-29T21:44:09.263Z,2.85
2019-05-29T21:46:56.940Z,3.05
2019-05-29T21:49:24.656Z,3.00
2019-05-29T21:51:52.842Z,2.67
2019-05-29T21:54:20.619Z,2.60
2019-05-29T21:56:48.615Z,2.90
2019-05-29T21:59:17.408Z,3.20
2019-05-29T22:01:48.460Z,2.90
2019-05-29T22:04:16.890Z,2.92
2019-05-29T22:06:45.204Z,2.60
2019-05-29T22:09:13.682Z,3.02
2019-05-29T22:11:41.740Z,2.80
2019-05-29T22:14:09.436Z,2.92
2019-05-29T22:16:37.317Z,2.87
2019-05-29T22:19:05.495Z,2.65
2019-05-29T22:21:33.211Z,3.02
2019-05-29T22:24:02.836Z,2.90
2019-05-29T22:26:34.279Z,2.95
2019-05-29T22:29:17.073Z,2.83
2019-05-29T22:31:33.114Z,2.70
2019-05-29T22:34:05.620Z,3.05
2019-05-29T22:36:33.368Z,3.35
2019-05-29T22:39:01.818Z,3.12
2019-05-29T22:41:31.543Z,2.87
2019-05-29T22:44:00.207Z,2.90
2019-05-29T22:46:32.127Z,2.70
2019-05-29T22:49:00.105Z,3.10
2019-05-29T22:51:27.702Z,3.62
2019-05-29T22:53:59.702Z,3.45
2019-05-29T22:56:28.205Z,2.95
2019-05-29T22:58:56.088Z,3.52
2019-05-29T23:01:24.173Z,3.50
2019-05-29T23:03:52.035Z,2.92
2019-05-29T23:06:20.133Z,2.75
2019-05-29T23:08:47.820Z,2.65
2019-05-29T23:11:15.432Z,2.77
2019-05-29T23:13:43.190Z,2.98
2019-05-29T23:16:13.163Z,3.33
2019-05-29T23:18:40.774Z,4.15
2019-05-29T23:21:08.468Z,2.98
2019-05-29T23:23:38.278Z,3.35
2019-05-29T23:26:06.736Z,3.58
2019-05-29T23:28:38.151Z,4.03
2019-05-29T23:31:10.155Z,3.40
2019-05-29T23:33:39.354Z,3.92
2019-05-29T23:36:07.027Z,3.40
2019-05-29T23:38:37.696Z,3.25
2019-05-29T23:41:05.851Z,3.17
2019-05-29T23:43:33.559Z,3.50
2019-05-29T23:46:04.078Z,3.25
2019-05-29T23:48:32.227Z,3.25
2019-05-29T23:51:01.753Z,3.00
2019-05-29T23:53:30.607Z,2.60
2019-05-29T23:56:00.142Z,3.02
2019-05-29T23:58:27.752Z,3.05
